Time;durP1;ratioP1;P1;durP2;ratioP2;P2;SDS_P1;SDS_P2;PMS_P1;PMS_P2;Temp;Humidity;BMP_temperature;BMP_pressure;BME280_temperature;BME280_humidity;BME280_pressure;Samples;Min_cycle;Max_cycle;Signal;HPM_P1;HPM_P2
2022/08/10 00:01:26;;;;;;;6.78;4.40;;;15.40;99.90;;;;;;5028350;28;20044;-78
2022/08/10 00:03:52;;;;;;;6.75;4.85;;;15.40;99.90;;;;;;5014507;28;20076;-78
2022/08/10 00:06:17;;;;;;;7.75;5.10;;;15.40;99.90;;;;;;5028832;28;20041;-78
2022/08/10 00:08:43;;;;;;;7.72;5.35;;;15.50;99.90;;;;;;5031038;28;20042;-78
2022/08/10 00:11:09;;;;;;;7.60;5.32;;;15.40;99.90;;;;;;4995257;28;20037;-78
2022/08/10 00:13:35;;;;;;;6.63;4.90;;;15.40;99.90;;;;;;5030103;28;20037;-78
2022/08/10 00:16:02;;;;;;;8.68;5.72;;;15.30;99.90;;;;;;5023048;28;20037;-78
2022/08/10 00:18:28;;;;;;;7.75;5.40;;;15.30;99.90;;;;;;5043273;28;20041;-78
2022/08/10 00:20:54;;;;;;;7.40;5.55;;;15.20;99.90;;;;;;5027772;28;20037;-78
2022/08/10 00:23:19;;;;;;;9.13;5.20;;;15.20;99.90;;;;;;5044329;28;20051;-78
2022/08/10 00:25:45;;;;;;;9.20;5.75;;;15.20;99.90;;;;;;5044458;28;20051;-77
2022/08/10 00:28:11;;;;;;;7.75;5.60;;;15.20;99.90;;;;;;5036930;28;20050;-78
2022/08/10 00:30:37;;;;;;;8.65;6.40;;;15.20;99.90;;;;;;5005462;28;20077;-78
2022/08/10 00:33:03;;;;;;;9.07;6.95;;;15.20;99.90;;;;;;5024279;28;20091;-78
2022/08/10 00:35:29;;;;;;;8.55;6.53;;;15.20;99.90;;;;;;5023621;28;20037;-78
2022/08/10 00:37:55;;;;;;;10.02;7.50;;;15.20;99.90;;;;;;5010289;28;20139;-78
2022/08/10 00:40:20;;;;;;;9.63;7.80;;;15.20;99.90;;;;;;5040999;28;20049;-78
2022/08/10 00:42:46;;;;;;;10.70;6.95;;;15.20;99.90;;;;;;5004490;28;20048;-78
2022/08/10 00:45:12;;;;;;;9.63;8.00;;;15.20;99.90;;;;;;5022120;28;20037;-78
2022/08/10 00:47:38;;;;;;;8.45;7.15;;;15.20;99.90;;;;;;5008134;28;20132;-78
2022/08/10 00:50:05;;;;;;;9.65;7.00;;;15.20;99.90;;;;;;4998773;28;20030;-78
2022/08/10 00:52:33;;;;;;;10.07;7.78;;;15.20;99.90;;;;;;5015100;28;20133;-78
2022/08/10 00:55:01;;;;;;;9.82;7.38;;;15.20;99.90;;;;;;5036918;28;20041;-78
2022/08/10 00:57:28;;;;;;;10.98;7.55;;;15.20;99.90;;;;;;5035386;28;20106;-78
2022/08/10 00:59:54;;;;;;;9.82;7.28;;;15.20;99.90;;;;;;5015268;28;20103;-78
2022/08/10 01:02:20;;;;;;;9.82;7.72;;;15.20;99.90;;;;;;5001808;28;20041;-78
2022/08/10 01:04:46;;;;;;;10.15;7.38;;;15.20;99.90;;;;;;5004149;28;20408;-78
2022/08/10 01:07:40;;;;;;;10.73;7.40;;;15.20;99.90;;;;;;5024107;28;20129;-78
2022/08/10 01:10:15;;;;;;;10.65;7.93;;;15.20;99.90;;;;;;4999477;28;20038;-78
2022/08/10 01:12:44;;;;;;;10.55;7.97;;;15.10;99.90;;;;;;5016425;28;20370;-78
2022/08/10 01:15:29;;;;;;;14.15;8.70;;;15.00;99.90;;;;;;5017009;28;20499;-78
2022/08/10 01:18:04;;;;;;;12.75;8.75;;;15.10;99.90;;;;;;5015459;28;20050;-78
2022/08/10 01:20:46;;;;;;;11.85;9.32;;;15.00;99.90;;;;;;5014342;28;20068;-78
2022/08/10 01:23:30;;;;;;;;;;;15.00;99.90;;;;;;5016853;28;20046;-78
2022/08/10 01:26:08;;;;;;;10.50;8.50;;;15.00;99.90;;;;;;5029643;28;20008;-78
2022/08/10 01:28:46;;;;;;;11.88;9.30;;;14.90;99.90;;;;;;5013406;28;20542;-78
2022/08/10 01:31:18;;;;;;;11.77;9.93;;;14.90;99.90;;;;;;5012958;28;20507;-78
2022/08/10 01:33:52;;;;;;;13.52;10.23;;;14.90;99.90;;;;;;4997376;28;20038;-78
2022/08/10 01:36:23;;;;;;;13.48;11.00;;;14.90;99.90;;;;;;4998149;28;20044;-78
2022/08/10 01:38:51;;;;;;;13.10;10.27;;;14.80;99.90;;;;;;5017580;28;20034;-78
2022/08/10 01:41:35;;;;;;;14.25;10.80;;;14.90;99.90;;;;;;5015372;28;20116;-78
2022/08/10 01:44:04;;;;;;;12.68;11.00;;;14.90;99.90;;;;;;4998659;28;20092;-78
2022/08/10 01:46:33;;;;;;;14.43;11.38;;;14.80;99.90;;;;;;5021485;28;20060;-78
2022/08/10 01:49:01;;;;;;;15.30;11.18;;;14.80;99.90;;;;;;5014574;28;20030;-78
2022/08/10 01:51:34;;;;;;;15.85;11.13;;;14.80;99.90;;;;;;5016005;28;20034;-78
2022/08/10 01:54:13;;;;;;;14.85;11.90;;;14.80;99.90;;;;;;5027109;28;20121;-78
2022/08/10 01:56:42;;;;;;;14.57;11.57;;;14.80;99.90;;;;;;5026169;28;20492;-78
2022/08/10 01:59:12;;;;;;;15.52;12.10;;;14.80;99.90;;;;;;4997480;28;20048;-78
2022/08/10 02:01:41;;;;;;;14.05;11.88;;;14.80;99.90;;;;;;5012778;28;20038;-78
2022/08/10 02:04:10;;;;;;;15.02;12.32;;;14.80;99.90;;;;;;5014593;28;20048;-78
2022/08/10 02:06:42;;;;;;;14.00;11.80;;;14.70;99.90;;;;;;5021017;28;20037;-78
2022/08/10 02:09:13;;;;;;;15.57;12.68;;;14.70;99.90;;;;;;5012438;28;20532;-78
2022/08/10 02:11:39;;;;;;;16.05;12.10;;;14.70;99.90;;;;;;5014295;28;20041;-78
2022/08/10 02:14:07;;;;;;;14.35;12.32;;;14.70;99.90;;;;;;4998747;28;20538;-78
2022/08/10 02:16:37;;;;;;;15.90;12.27;;;14.70;99.90;;;;;;4996654;28;20037;-78
2022/08/10 02:19:04;;;;;;;14.57;12.50;;;14.70;99.90;;;;;;5012097;28;20045;-78
2022/08/10 02:21:30;;;;;;;15.93;11.95;;;14.70;99.90;;;;;;5018119;28;20527;-78
2022/08/10 02:23:58;;;;;;;14.07;12.00;;;14.70;99.90;;;;;;5013501;28;20045;-78
2022/08/10 02:26:25;;;;;;;16.10;12.48;;;14.70;99.90;;;;;;5018997;28;20081;-78
2022/08/10 02:28:52;;;;;;;16.13;12.43;;;14.70;99.90;;;;;;5018167;28;20050;-78
2022/08/10 02:31:21;;;;;;;15.70;12.10;;;14.60;99.90;;;;;;5012763;28;20485;-78
2022/08/10 02:33:49;;;;;;;16.30;12.75;;;14.60;99.90;;;;;;4997895;28;20499;-78
2022/08/10 02:36:16;;;;;;;17.42;13.15;;;14.60;99.90;;;;;;5013432;28;20053;-78
2022/08/10 02:38:51;;;;;;;15.32;12.75;;;14.60;99.90;;;;;;5013098;28;20572;-78
2022/08/10 02:41:45;;;;;;;15.30;12.65;;;14.50;99.90;;;;;;5015518;28;20038;-78
2022/08/10 02:44:34;;;;;;;15.32;13.00;;;14.60;99.90;;;;;;5016346;28;20037;-78
2022/08/10 02:47:14;;;;;;;15.40;12.52;;;14.60;99.90;;;;;;5016203;28;20064;-78
2022/08/10 02:49:48;;;;;;;16.83;13.07;;;14.50;99.90;;;;;;5010288;28;20100;-78
2022/08/10 02:52:23;;;;;;;19.20;14.60;;;14.50;99.90;;;;;;5009498;28;20041;-78
2022/08/10 02:55:00;;;;;;;18.63;13.45;;;14.50;99.90;;;;;;4998359;28;20417;-78
2022/08/10 02:57:35;;;;;;;17.02;13.55;;;14.50;99.90;;;;;;5013695;28;20045;-78
2022/08/10 03:00:05;;;;;;;16.42;13.45;;;14.50;99.90;;;;;;5012848;28;20128;-78
2022/08/10 03:02:35;;;;;;;16.13;13.45;;;14.50;99.90;;;;;;5008875;28;20120;-78
2022/08/10 03:05:10;;;;;;;18.52;14.10;;;14.50;99.90;;;;;;5041263;28;20040;-78
2022/08/10 03:07:52;;;;;;;17.00;13.45;;;14.50;99.90;;;;;;5016970;28;20033;-78
2022/08/10 03:10:25;;;;;;;17.67;13.90;;;14.50;99.90;;;;;;5041074;28;20045;-78
2022/08/10 03:12:57;;;;;;;16.27;13.50;;;14.50;99.90;;;;;;5011934;28;20037;-78
2022/08/10 03:15:23;;;;;;;;;;;14.50;99.90;;;;;;5031572;28;20041;-78
2022/08/10 03:17:51;;;;;;;14.93;12.52;;;14.50;99.90;;;;;;5031543;28;19967;-78
2022/08/10 03:20:19;;;;;;;18.42;14.18;;;14.50;99.90;;;;;;5047127;28;20103;-78
2022/08/10 03:22:46;;;;;;;15.98;13.25;;;14.50;99.90;;;;;;5031286;28;20121;-78
2022/08/10 03:25:13;;;;;;;19.73;13.98;;;14.50;99.90;;;;;;5027837;28;20179;-78
2022/08/10 03:27:41;;;;;;;17.00;13.48;;;14.50;99.90;;;;;;5004223;28;20053;-78
2022/08/10 03:30:07;;;;;;;18.23;14.60;;;14.50;99.90;;;;;;5029473;28;20122;-77
2022/08/10 03:32:35;;;;;;;17.98;13.70;;;14.50;99.90;;;;;;5011416;28;20061;-78
2022/08/10 03:35:01;;;;;;;15.00;12.50;;;14.50;99.90;;;;;;5016244;28;20042;-78
2022/08/10 03:37:27;;;;;;;18.15;13.85;;;14.60;99.90;;;;;;5014837;28;20492;-78
2022/08/10 03:39:54;;;;;;;14.73;12.00;;;14.50;99.90;;;;;;5014971;28;20049;-78
2022/08/10 03:42:21;;;;;;;18.50;14.05;;;14.60;99.90;;;;;;5030675;28;20041;-78
2022/08/10 03:44:48;;;;;;;17.73;14.57;;;14.60;99.90;;;;;;5020750;28;20046;-78
2022/08/10 03:47:16;;;;;;;16.30;12.93;;;14.60;99.90;;;;;;5011434;28;20038;-78
2022/08/10 03:49:42;;;;;;;16.98;13.48;;;14.60;99.90;;;;;;5025365;28;20511;-78
2022/08/10 03:52:09;;;;;;;16.85;13.20;;;14.60;99.90;;;;;;5014603;28;20041;-78
2022/08/10 03:54:35;;;;;;;16.58;14.07;;;14.60;99.90;;;;;;5022599;28;20111;-78
2022/08/10 03:57:01;;;;;;;16.88;12.90;;;14.60;99.90;;;;;;5038161;28;20503;-78
2022/08/10 03:59:30;;;;;;;16.08;13.27;;;14.60;99.90;;;;;;5017611;28;20033;-78
2022/08/10 04:01:56;;;;;;;17.77;14.45;;;14.50;99.90;;;;;;5018867;28;20110;-78
2022/08/10 04:04:23;;;;;;;17.67;14.02;;;14.50;99.90;;;;;;5015154;28;20125;-78
2022/08/10 04:06:52;;;;;;;14.93;11.75;;;14.40;99.90;;;;;;5023432;28;20053;-78
2022/08/10 04:09:18;;;;;;;14.30;11.57;;;14.40;99.90;;;;;;5018589;28;20099;-78
2022/08/10 04:11:44;;;;;;;17.33;13.82;;;14.50;99.90;;;;;;5018654;28;20513;-78
2022/08/10 04:14:10;;;;;;;16.92;13.73;;;14.50;99.90;;;;;;5034563;28;20041;-78
2022/08/10 04:16:35;;;;;;;16.98;13.32;;;14.50;99.90;;;;;;5031435;28;20374;-78
2022/08/10 04:19:02;;;;;;;19.30;15.43;;;14.40;99.90;;;;;;5017777;28;20048;-78
2022/08/10 04:21:37;;;;;;;18.70;15.68;;;14.40;99.90;;;;;;5010880;28;20033;-78
2022/08/10 04:24:05;;;;;;;21.08;16.33;;;14.40;99.90;;;;;;5034402;28;20052;-78
2022/08/10 04:26:31;;;;;;;19.45;13.80;;;14.30;99.90;;;;;;5001623;28;20045;-78
2022/08/10 04:28:57;;;;;;;16.15;14.20;;;14.30;99.90;;;;;;5017964;28;20042;-78
2022/08/10 04:31:25;;;;;;;19.35;15.68;;;14.30;99.90;;;;;;5017924;28;20084;-78
2022/08/10 04:33:52;;;;;;;16.80;14.50;;;14.30;99.90;;;;;;5019804;28;20033;-78
2022/08/10 04:36:20;;;;;;;19.92;15.05;;;14.30;99.90;;;;;;5017407;28;20552;-78
2022/08/10 04:38:50;;;;;;;16.30;14.07;;;14.20;99.90;;;;;;5020286;28;20064;-78
2022/08/10 04:41:16;;;;;;;19.95;15.27;;;14.20;99.90;;;;;;5034294;28;20049;-78
2022/08/10 04:43:41;;;;;;;17.38;13.80;;;14.30;99.90;;;;;;5032455;28;20052;-78
2022/08/10 04:46:07;;;;;;;20.10;15.25;;;14.30;99.90;;;;;;5014416;28;20033;-78
2022/08/10 04:48:33;;;;;;;24.27;17.33;;;14.30;99.90;;;;;;5027601;28;20045;-78
2022/08/10 04:50:59;;;;;;;20.48;16.50;;;14.30;99.90;;;;;;5019492;28;20129;-78
2022/08/10 04:53:24;;;;;;;18.85;14.88;;;14.30;99.90;;;;;;5017806;28;20037;-78
2022/08/10 04:55:50;;;;;;;18.05;15.05;;;14.40;99.90;;;;;;4997798;28;20062;-78
2022/08/10 04:58:16;;;;;;;20.02;16.13;;;14.40;99.90;;;;;;5003811;28;20044;-78
2022/08/10 05:00:41;;;;;;;20.13;15.43;;;14.40;99.90;;;;;;5020982;28;20136;-78
2022/08/10 05:03:07;;;;;;;20.42;16.13;;;14.40;99.90;;;;;;5017475;28;20041;-78
2022/08/10 05:05:33;;;;;;;17.30;14.32;;;14.40;99.90;;;;;;5004188;28;20627;-78
2022/08/10 05:07:59;;;;;;;17.38;14.27;;;14.40;99.90;;;;;;5015605;28;20029;-78
2022/08/10 05:10:24;;;;;;;21.05;15.75;;;14.50;99.90;;;;;;5039872;28;20037;-78
2022/08/10 05:12:50;;;;;;;18.90;14.13;;;14.50;99.90;;;;;;5014084;28;20128;-78
2022/08/10 05:15:17;;;;;;;19.05;15.07;;;14.60;99.90;;;;;;5014117;28;20034;-77
2022/08/10 05:17:44;;;;;;;16.52;13.45;;;14.60;99.90;;;;;;5000135;28;20041;-78
2022/08/10 05:20:11;;;;;;;17.05;14.18;;;14.60;99.90;;;;;;5020308;28;20107;-78
2022/08/10 05:22:42;;;;;;;15.50;12.98;;;14.70;99.90;;;;;;5016959;28;20103;-78
2022/08/10 05:25:10;;;;;;;20.30;15.85;;;14.70;99.90;;;;;;5032884;28;20124;-77
2022/08/10 05:27:38;;;;;;;18.67;14.05;;;14.70;99.90;;;;;;5017310;28;20053;-77
2022/08/10 05:30:05;;;;;;;18.33;15.20;;;14.80;99.90;;;;;;5031753;28;20033;-77
2022/08/10 05:32:32;;;;;;;17.60;14.60;;;14.90;99.90;;;;;;5021001;28;20037;-77
2022/08/10 05:34:58;;;;;;;17.13;15.18;;;15.00;99.90;;;;;;5016398;28;20124;-77
2022/08/10 05:37:24;;;;;;;16.92;14.13;;;15.20;99.90;;;;;;5047956;28;20132;-77
2022/08/10 05:39:52;;;;;;;14.90;13.30;;;15.50;99.90;;;;;;5024001;28;20033;-77
2022/08/10 05:42:20;;;;;;;14.63;12.00;;;16.30;99.90;;;;;;5032478;28;20049;-77
2022/08/10 05:44:46;;;;;;;13.90;12.23;;;16.70;99.90;;;;;;5049594;28;20053;-77
2022/08/10 05:47:12;;;;;;;13.52;11.15;;;17.60;99.90;;;;;;5000189;28;20551;-76
2022/08/10 05:49:37;;;;;;;12.57;10.55;;;18.00;99.90;;;;;;5040822;28;20036;-76
2022/08/10 05:52:04;;;;;;;12.82;10.43;;;18.10;99.90;;;;;;5016377;28;20044;-76
2022/08/10 05:54:29;;;;;;;12.07;10.18;;;18.70;99.90;;;;;;5046047;28;20546;-77
2022/08/10 05:56:55;;;;;;;11.68;10.48;;;18.90;99.90;;;;;;5030836;28;20049;-76
2022/08/10 05:59:24;;;;;;;11.45;9.52;;;19.10;99.90;;;;;;5015983;28;20041;-75
2022/08/10 06:01:52;;;;;;;11.82;9.82;;;19.30;99.90;;;;;;5016434;28;20080;-78
2022/08/10 06:04:28;;;;;;;10.02;8.77;;;19.60;99.90;;;;;;5015730;28;20044;-77
2022/08/10 06:06:55;;;;;;;11.70;9.13;;;19.90;99.90;;;;;;5031434;28;20037;-77
2022/08/10 06:09:22;;;;;;;9.55;8.15;;;20.20;99.90;;;;;;4995161;28;20063;-77
2022/08/10 06:11:50;;;;;;;10.55;8.60;;;21.10;99.90;;;;;;5031705;28;20542;-77
2022/08/10 06:17:03;;;;;;;11.45;8.98;;;22.30;99.90;;;;;;5018675;28;20057;-77
2022/08/10 06:19:29;;;;;;;9.68;8.00;;;22.10;99.90;;;;;;5032394;28;20496;-78
2022/08/10 06:21:56;;;;;;;11.43;8.10;;;22.70;99.90;;;;;;5030429;28;20080;-77
2022/08/10 06:24:25;;;;;;;9.95;7.63;;;23.00;99.90;;;;;;5030078;28;20092;-78
2022/08/10 06:26:51;;;;;;;10.48;7.30;;;23.50;99.90;;;;;;4997840;28;20635;-77
2022/08/10 06:29:19;;;;;;;9.35;7.45;;;23.50;99.90;;;;;;5033046;28;20135;-77
2022/08/10 06:31:48;;;;;;;8.60;7.28;;;23.50;99.90;;;;;;5010151;28;20492;-77
2022/08/10 06:34:20;;;;;;;8.52;6.60;;;23.20;99.90;;;;;;5029704;28;20045;-80
2022/08/10 06:36:46;;;;;;;8.43;6.43;;;23.60;99.90;;;;;;5010177;28;20045;-79
2022/08/10 06:39:12;;;;;;;9.02;7.28;;;24.10;99.90;;;;;;5021505;28;20480;-79
2022/08/10 06:41:43;;;;;;;8.88;6.97;;;23.90;98.60;;;;;;5011942;28;20041;-79
2022/08/10 06:44:14;;;;;;;10.35;6.72;;;23.40;99.60;;;;;;5033048;28;20037;-79
2022/08/10 06:46:46;;;;;;;9.77;7.40;;;23.30;99.90;;;;;;5026071;28;20080;-79
2022/08/10 06:49:14;;;;;;;8.57;5.90;;;23.40;99.90;;;;;;5006065;28;20073;-79
2022/08/10 06:51:43;;;;;;;9.32;6.32;;;23.60;99.90;;;;;;5011475;28;20511;-79
2022/08/10 06:54:14;;;;;;;8.07;5.80;;;23.90;99.90;;;;;;5008742;28;20037;-79
2022/08/10 06:56:43;;;;;;;8.47;6.40;;;24.30;99.30;;;;;;5019897;28;20546;-79
2022/08/10 06:59:17;;;;;;;9.38;5.90;;;25.20;96.90;;;;;;5010184;28;20552;-79
2022/08/10 07:01:47;;;;;;;9.43;6.53;;;25.00;96.50;;;;;;5022251;28;20041;-79
2022/08/10 07:04:29;;;;;;;8.27;5.93;;;25.10;96.30;;;;;;5010312;28;20554;-78
2022/08/10 07:06:56;;;;;;;7.35;5.85;;;25.30;95.50;;;;;;4999253;28;20124;-77
2022/08/10 07:09:24;;;;;;;7.50;6.00;;;25.00;95.90;;;;;;5010232;28;20045;-77
2022/08/10 07:11:52;;;;;;;7.95;6.00;;;24.90;95.60;;;;;;5012509;28;20044;-79
2022/08/10 07:14:20;;;;;;;7.63;5.40;;;25.10;95.30;;;;;;5034003;28;20400;-78
2022/08/10 07:16:47;;;;;;;9.00;5.13;;;25.20;95.10;;;;;;5011359;28;20044;-78
2022/08/10 07:19:14;;;;;;;9.48;6.55;;;25.70;94.80;;;;;;5030770;28;20049;-78
2022/08/10 07:21:42;;;;;;;7.30;5.05;;;25.70;91.70;;;;;;5028352;28;20095;-78
2022/08/10 07:24:10;;;;;;;8.60;5.80;;;25.70;92.90;;;;;;5011976;28;20045;-78
2022/08/10 07:26:38;;;;;;;7.63;4.85;;;25.40;91.80;;;;;;5013359;28;20093;-78
2022/08/10 07:29:05;;;;;;;8.07;5.25;;;25.80;92.50;;;;;;5021535;28;20045;-78
2022/08/10 07:31:32;;;;;;;8.10;5.35;;;25.50;92.00;;;;;;5030742;28;20045;-77
2022/08/10 07:34:01;;;;;;;8.55;5.32;;;25.40;92.50;;;;;;4994398;28;20049;-77
2022/08/10 07:36:30;;;;;;;6.93;5.10;;;26.10;90.90;;;;;;5006930;28;20069;-78
2022/08/10 07:38:56;;;;;;;8.60;5.90;;;25.90;91.10;;;;;;5030430;28;20038;-77
2022/08/10 07:41:29;;;;;;;9.13;4.93;;;25.90;91.10;;;;;;5030424;28;20061;-77
2022/08/10 07:43:56;;;;;;;8.40;5.60;;;26.10;91.70;;;;;;5030511;28;20420;-77
2022/08/10 07:46:23;;;;;;;7.95;5.63;;;25.80;90.60;;;;;;5014009;28;20484;-77
2022/08/10 07:48:59;;;;;;;6.68;4.88;;;25.30;90.70;;;;;;4997142;28;20041;-79
2022/08/10 07:51:26;;;;;;;8.57;5.45;;;25.80;91.70;;;;;;5027806;28;20122;-78
2022/08/10 07:53:54;;;;;;;7.05;5.28;;;25.60;91.00;;;;;;5020748;28;20592;-78
2022/08/10 07:56:27;;;;;;;8.60;4.90;;;25.40;90.70;;;;;;5030194;28;20164;-78
2022/08/10 07:59:07;;;;;;;8.85;5.13;;;25.80;92.30;;;;;;5030596;28;20048;-78
2022/08/10 08:01:37;;;;;;;9.30;4.68;;;25.90;90.80;;;;;;5001737;28;20045;-78
2022/08/10 08:04:05;;;;;;;9.25;5.30;;;25.90;90.90;;;;;;5016299;28;20579;-78
2022/08/10 08:06:32;;;;;;;7.03;4.40;;;25.60;91.20;;;;;;5014096;28;20040;-78
2022/08/10 08:09:02;;;;;;;7.32;4.30;;;25.50;92.30;;;;;;5014118;28;20045;-78
2022/08/10 08:11:29;;;;;;;7.35;5.07;;;26.10;91.60;;;;;;5025267;28;20497;-78
2022/08/10 08:13:56;;;;;;;8.43;4.78;;;26.20;90.90;;;;;;5006748;28;20099;-78
2022/08/10 08:16:23;;;;;;;9.73;5.25;;;26.60;90.60;;;;;;5030314;28;20050;-78
2022/08/10 08:18:52;;;;;;;7.55;4.35;;;26.50;89.00;;;;;;5030314;28;20049;-78
2022/08/10 08:21:18;;;;;;;7.88;4.47;;;26.70;89.70;;;;;;5030052;28;20500;-78
2022/08/10 08:23:46;;;;;;;8.52;4.65;;;26.50;88.80;;;;;;5014027;28;20045;-78
2022/08/10 08:26:14;;;;;;;7.68;4.10;;;25.90;90.00;;;;;;5030460;28;20582;-78
2022/08/10 08:28:41;;;;;;;6.53;3.92;;;25.90;90.70;;;;;;5030537;28;20050;-78
2022/08/10 08:31:08;;;;;;;6.75;4.30;;;26.20;90.30;;;;;;5030735;28;20046;-78
2022/08/10 08:33:34;;;;;;;7.68;4.68;;;26.30;90.10;;;;;;5008466;28;20076;-78
2022/08/10 08:36:02;;;;;;;8.32;4.57;;;26.40;90.20;;;;;;5026086;28;20143;-78
2022/08/10 08:38:29;;;;;;;6.60;4.07;;;26.40;90.10;;;;;;5033766;28;20046;-78
2022/08/10 08:41:06;;;;;;;8.18;4.13;;;26.10;89.30;;;;;;5007376;28;20077;-78
2022/08/10 08:44:18;;;;;;;7.15;4.32;;;26.40;89.30;;;;;;5025232;28;20069;-77
2022/08/10 08:47:01;;;;;;;6.18;3.65;;;26.60;87.50;;;;;;5029888;28;20041;-78
2022/08/10 08:49:47;;;;;;;6.97;3.55;;;26.70;88.20;;;;;;5006541;28;20042;-78
2022/08/10 08:52:35;;;;;;;6.53;3.70;;;26.60;88.10;;;;;;5032559;28;20112;-78
2022/08/10 08:55:17;;;;;;;7.20;3.00;;;26.80;85.10;;;;;;5033391;28;20037;-78
2022/08/10 08:58:05;;;;;;;7.65;3.53;;;26.90;84.00;;;;;;5017483;28;20041;-78
2022/08/10 09:00:50;;;;;;;9.30;3.63;;;26.90;83.20;;;;;;5033528;28;20046;-78
2022/08/10 09:03:53;;;;;;;7.03;3.00;;;26.70;85.30;;;;;;5022922;28;20050;-78
2022/08/10 09:06:39;;;;;;;8.18;3.42;;;27.00;85.40;;;;;;5013119;28;20108;-78
2022/08/10 09:09:23;;;;;;;6.18;3.22;;;27.40;85.20;;;;;;5008805;28;20041;-78
2022/08/10 09:12:15;;;;;;;7.47;3.75;;;27.60;83.00;;;;;;5016794;28;20037;-78
2022/08/10 09:14:54;;;;;;;6.40;3.30;;;27.20;83.20;;;;;;5019424;28;20049;-78
2022/08/10 09:17:30;;;;;;;7.35;2.85;;;27.40;85.10;;;;;;5033568;28;20120;-78
2022/08/10 09:20:05;;;;;;;5.85;2.90;;;27.60;84.40;;;;;;5032784;28;20081;-78
2022/08/10 09:23:12;;;;;;;7.47;3.50;;;27.60;81.60;;;;;;5016575;28;20056;-78
2022/08/10 09:25:44;;;;;;;6.50;2.90;;;27.10;80.60;;;;;;5024554;28;20057;-77
2022/08/10 09:28:21;;;;;;;6.78;3.30;;;27.20;82.40;;;;;;4999246;28;20129;-78
2022/08/10 09:30:59;;;;;;;6.00;2.55;;;27.30;80.30;;;;;;5024524;28;20045;-78
2022/08/10 09:33:36;;;;;;;7.03;2.40;;;27.40;81.60;;;;;;5032898;28;20400;-78
2022/08/10 09:36:35;;;;;;;7.38;2.50;;;27.50;79.60;;;;;;5029672;28;20497;-78
2022/08/10 09:39:10;;;;;;;5.95;2.90;;;27.90;78.80;;;;;;5021846;28;20073;-77
2022/08/10 09:41:48;;;;;;;7.00;2.80;;;27.90;76.60;;;;;;5018517;28;20041;-78
2022/08/10 09:44:29;;;;;;;4.82;2.20;;;27.80;77.90;;;;;;5032687;28;20075;-78
2022/08/10 09:47:12;;;;;;;6.30;2.40;;;27.80;77.10;;;;;;5028210;28;20076;-78
2022/08/10 09:49:43;;;;;;;6.85;2.30;;;28.00;72.90;;;;;;5008794;28;20496;-78
2022/08/10 09:52:09;;;;;;;6.57;2.35;;;28.20;73.70;;;;;;5031917;28;20034;-78
2022/08/10 09:54:52;;;;;;;4.70;2.05;;;28.10;69.60;;;;;;5016418;28;20041;-78
2022/08/10 09:57:31;;;;;;;5.93;2.10;;;28.30;69.40;;;;;;5031090;28;20037;-78
2022/08/10 10:00:08;;;;;;;5.05;2.10;;;28.20;71.00;;;;;;5021386;28;20400;-78
2022/08/10 10:03:12;;;;;;;6.35;2.10;;;28.40;68.40;;;;;;5029687;28;20053;-78
2022/08/10 10:06:11;;;;;;;6.07;2.33;;;28.40;67.70;;;;;;4969532;28;20049;-78
2022/08/10 10:09:01;;;;;;;5.07;2.00;;;27.90;69.20;;;;;;5015389;28;20451;-77
2022/08/10 10:11:40;;;;;;;5.10;1.80;;;28.10;68.90;;;;;;5030671;28;20038;-77
2022/08/10 10:14:32;;;;;;;6.80;2.03;;;28.30;65.60;;;;;;5014601;28;20288;-77
2022/08/10 10:17:16;;;;;;;4.25;1.95;;;28.20;65.50;;;;;;5013438;28;20491;-77
2022/08/10 10:19:52;;;;;;;5.00;2.10;;;28.50;63.90;;;;;;5031945;28;20124;-77
2022/08/10 10:22:33;;;;;;;7.43;2.22;;;28.70;62.30;;;;;;5025181;28;20033;-77
2022/08/10 10:25:22;;;;;;;6.05;1.77;;;28.70;60.50;;;;;;5028807;28;20376;-77
2022/08/10 10:28:28;;;;;;;4.82;1.70;;;28.80;60.60;;;;;;5016667;28;20053;-77
2022/08/10 10:31:10;;;;;;;5.57;1.60;;;28.90;58.10;;;;;;4991096;28;20578;-77
2022/08/10 10:34:01;;;;;;;4.57;1.60;;;29.00;59.80;;;;;;5008219;28;20049;-78
2022/08/10 10:36:28;;;;;;;4.43;1.77;;;29.20;58.10;;;;;;5025768;28;20037;-78
2022/08/10 10:38:58;;;;;;;5.75;1.80;;;29.20;55.10;;;;;;5031139;28;20511;-78
2022/08/10 10:41:39;;;;;;;5.70;1.50;;;29.10;53.70;;;;;;5027120;28;20041;-78
2022/08/10 10:44:33;;;;;;;4.30;1.40;;;29.10;55.10;;;;;;5030876;28;20268;-78
2022/08/10 10:47:45;;;;;;;5.25;1.60;;;29.10;52.30;;;;;;5030088;28;20056;-78
2022/08/10 10:50:39;;;;;;;4.07;1.50;;;28.80;54.80;;;;;;5045795;28;20101;-77
2022/08/10 10:53:31;;;;;;;5.20;1.95;;;29.20;54.60;;;;;;5037805;28;20049;-78
2022/08/10 10:56:21;;;;;;;6.32;1.85;;;29.50;54.10;;;;;;5060857;28;20029;-78
2022/08/10 10:59:02;;;;;;;5.03;1.40;;;29.10;53.80;;;;;;5030073;28;20045;-77
2022/08/10 11:02:00;;;;;;;5.07;1.52;;;29.20;53.70;;;;;;5024525;28;20046;-77
2022/08/10 11:04:53;;;;;;;5.00;1.30;;;29.20;50.30;;;;;;5043917;28;20042;-78
2022/08/10 11:07:38;;;;;;;3.50;1.20;;;29.30;48.90;;;;;;5029281;28;20052;-77
2022/08/10 11:10:09;;;;;;;4.25;1.40;;;29.40;50.00;;;;;;5031855;28;20057;-79
2022/08/10 11:13:11;;;;;;;5.65;1.50;;;29.60;51.30;;;;;;5026444;28;20045;-78
2022/08/10 11:16:15;;;;;;;7.03;1.50;;;29.80;49.90;;;;;;5022463;28;20065;-78
2022/08/10 11:18:51;;;;;;;5.03;1.50;;;29.70;49.20;;;;;;5045076;28;20049;-78
2022/08/10 11:21:30;;;;;;;3.83;1.38;;;29.80;49.70;;;;;;4994718;28;20060;-77
2022/08/10 11:24:15;;;;;;;5.50;1.65;;;30.00;47.90;;;;;;4973421;28;20049;-78
2022/08/10 11:26:48;;;;;;;5.95;1.70;;;29.90;47.10;;;;;;5026822;28;20081;-78
2022/08/10 11:29:16;;;;;;;6.93;1.65;;;29.60;48.60;;;;;;5046856;28;20041;-79
2022/08/10 11:31:47;;;;;;;4.20;1.70;;;29.70;48.60;;;;;;5039238;28;20038;-77
2022/08/10 11:34:45;;;;;;;6.40;1.80;;;29.20;49.40;;;;;;5017644;28;20038;-78
2022/08/10 11:37:35;;;;;;;6.75;2.40;;;29.10;48.70;;;;;;5023367;28;20049;-78
2022/08/10 11:40:26;;;;;;;7.45;1.73;;;29.00;49.00;;;;;;5013782;28;20041;-78
2022/08/10 11:43:21;;;;;;;5.88;1.70;;;29.10;50.40;;;;;;5029942;28;20483;-78
2022/08/10 11:46:27;;;;;;;4.55;1.60;;;29.40;50.00;;;;;;5028786;28;20500;-78
2022/08/10 11:49:11;;;;;;;5.47;1.55;;;29.50;48.80;;;;;;5024904;28;20473;-78
2022/08/10 11:51:44;;;;;;;4.13;1.40;;;29.60;47.50;;;;;;5027224;28;20041;-78
2022/08/10 11:54:20;;;;;;;4.35;1.50;;;29.60;46.80;;;;;;5011751;28;20042;-78
2022/08/10 11:56:48;;;;;;;7.20;1.60;;;29.70;47.70;;;;;;5024959;28;20497;-78
2022/08/10 12:02:06;;;;;;;4.37;1.33;;;29.90;47.10;;;;;;5022918;28;20041;-78
2022/08/10 12:04:34;;;;;;;4.80;1.30;;;29.90;45.80;;;;;;5021999;28;20291;-78
2022/08/10 12:07:03;;;;;;;4.25;1.30;;;29.90;46.40;;;;;;5028818;28;20491;-78
2022/08/10 12:09:30;;;;;;;4.72;1.55;;;29.90;45.50;;;;;;5005060;28;20180;-78
2022/08/10 12:12:01;;;;;;;5.03;1.40;;;29.70;45.90;;;;;;5015653;28;20131;-78
2022/08/10 12:14:35;;;;;;;4.00;1.40;;;29.60;45.80;;;;;;5033059;28;20046;-78
2022/08/10 12:17:06;;;;;;;3.95;1.30;;;29.40;45.40;;;;;;5031150;28;20049;-78
2022/08/10 12:19:49;;;;;;;5.63;1.30;;;29.40;46.20;;;;;;5015039;28;20045;-78
2022/08/10 12:22:21;;;;;;;5.57;1.60;;;29.40;46.10;;;;;;5013717;28;20556;-78
2022/08/10 12:25:03;;;;;;;4.97;1.45;;;29.40;45.90;;;;;;5032469;28;20048;-78
2022/08/10 12:28:01;;;;;;;3.78;1.50;;;29.40;44.90;;;;;;5016068;28;20099;-78
2022/08/10 12:30:34;;;;;;;5.65;1.48;;;29.40;44.80;;;;;;5028985;28;20081;-78
2022/08/10 12:33:12;;;;;;;4.78;1.35;;;29.40;44.80;;;;;;5029260;28;20046;-78
2022/08/10 12:35:58;;;;;;;4.82;1.60;;;29.40;45.50;;;;;;5028154;28;20042;-78
2022/08/10 12:38:47;;;;;;;6.43;1.40;;;29.50;45.20;;;;;;5016530;28;20045;-78
2022/08/10 12:41:22;;;;;;;5.85;1.50;;;29.50;45.00;;;;;;5022453;28;20052;-78
2022/08/10 12:44:11;;;;;;;4.72;1.50;;;29.40;45.30;;;;;;5014475;28;20124;-79
2022/08/10 12:46:53;;;;;;;4.60;1.50;;;29.50;45.40;;;;;;5029293;28;20099;-80
2022/08/10 12:49:33;;;;;;;4.78;1.40;;;29.60;45.70;;;;;;5030521;28;20099;-80
2022/08/10 12:52:01;;;;;;;5.47;1.35;;;29.60;45.30;;;;;;5031735;28;20514;-79
2022/08/10 12:54:32;;;;;;;5.88;1.55;;;29.50;44.70;;;;;;5033710;28;20580;-79
2022/08/10 12:57:02;;;;;;;5.40;1.42;;;29.50;45.40;;;;;;5025152;28;21101;-78
2022/08/10 12:59:30;;;;;;;4.55;1.30;;;29.50;43.90;;;;;;4990639;28;20107;-79
2022/08/10 13:01:57;;;;;;;4.63;1.40;;;29.40;45.20;;;;;;5028288;28;20503;-80
2022/08/10 13:04:34;;;;;;;4.70;1.45;;;29.60;45.40;;;;;;4997000;28;20045;-80
2022/08/10 13:07:03;;;;;;;5.25;1.60;;;29.80;45.80;;;;;;5030394;28;20069;-79
2022/08/10 13:09:31;;;;;;;4.82;1.70;;;30.00;44.80;;;;;;5014004;28;20034;-79
2022/08/10 13:12:14;;;;;;;4.57;1.67;;;29.80;44.80;;;;;;5014192;28;20029;-79
2022/08/10 13:15:04;;;;;;;4.25;1.50;;;29.80;45.20;;;;;;5011305;28;20117;-79
2022/08/10 13:17:32;;;;;;;4.90;1.67;;;29.80;44.70;;;;;;5025075;28;20038;-78